sensor_id;sensor_type;location;lat;lon;timestamp;P1;durP1;ratioP1;P2;durP2;ratioP2
21162;SDS011;10739;52.198;20.908;2024-01-25T00:00:04;9.52;;;2.85;;
21162;SDS011;10739;52.198;20.908;2024-01-25T00:02:31;10.82;;;2.90;;
21162;SDS011;10739;52.198;20.908;2024-01-25T00:04:57;9.55;;;2.47;;
21162;SDS011;10739;52.198;20.908;2024-01-25T00:07:24;11.90;;;2.90;;
21162;SDS011;10739;52.198;20.908;2024-01-25T00:09:50;8.60;;;2.47;;
21162;SDS011;10739;52.198;20.908;2024-01-25T00:12:16;9.10;;;2.20;;
21162;SDS011;10739;52.198;20.908;2024-01-25T00:14:43;10.07;;;2.45;;
21162;SDS011;10739;52.198;20.908;2024-01-25T00:17:09;14.10;;;2.60;;
21162;SDS011;10739;52.198;20.908;2024-01-25T00:19:35;6.70;;;2.10;;
21162;SDS011;10739;52.198;20.908;2024-01-25T00:22:02;6.90;;;2.08;;
21162;SDS011;10739;52.198;20.908;2024-01-25T00:24:31;8.43;;;2.47;;
21162;SDS011;10739;52.198;20.908;2024-01-25T00:26:58;12.82;;;2.05;;
21162;SDS011;10739;52.198;20.908;2024-01-25T00:29:25;6.60;;;1.63;;
21162;SDS011;10739;52.198;20.908;2024-01-25T00:31:51;7.85;;;2.22;;
21162;SDS011;10739;52.198;20.908;2024-01-25T00:34:17;9.02;;;2.25;;
21162;SDS011;10739;52.198;20.908;2024-01-25T00:36:44;9.18;;;2.13;;
21162;SDS011;10739;52.198;20.908;2024-01-25T00:39:11;7.15;;;2.22;;
21162;SDS011;10739;52.198;20.908;2024-01-25T00:41:37;7.50;;;2.28;;
21162;SDS011;10739;52.198;20.908;2024-01-25T00:44:05;11.63;;;2.50;;
21162;SDS011;10739;52.198;20.908;2024-01-25T00:46:32;8.77;;;2.55;;
21162;SDS011;10739;52.198;20.908;2024-01-25T00:48:58;8.70;;;2.65;;
21162;SDS011;10739;52.198;20.908;2024-01-25T00:51:25;15.02;;;3.25;;
21162;SDS011;10739;52.198;20.908;2024-01-25T00:53:52;13.40;;;3.08;;
21162;SDS011;10739;52.198;20.908;2024-01-25T00:56:18;12.95;;;2.83;;
21162;SDS011;10739;52.198;20.908;2024-01-25T00:58:45;15.70;;;3.17;;
21162;SDS011;10739;52.198;20.908;2024-01-25T01:01:12;15.40;;;3.05;;
21162;SDS011;10739;52.198;20.908;2024-01-25T01:03:39;9.70;;;2.35;;
21162;SDS011;10739;52.198;20.908;2024-01-25T01:06:06;13.82;;;3.40;;
21162;SDS011;10739;52.198;20.908;2024-01-25T01:08:33;14.80;;;3.40;;
21162;SDS011;10739;52.198;20.908;2024-01-25T01:10:59;9.95;;;3.00;;
21162;SDS011;10739;52.198;20.908;2024-01-25T01:13:25;14.65;;;3.85;;
21162;SDS011;10739;52.198;20.908;2024-01-25T01:15:52;19.83;;;3.85;;
21162;SDS011;10739;52.198;20.908;2024-01-25T01:18:18;15.93;;;3.00;;
21162;SDS011;10739;52.198;20.908;2024-01-25T01:20:44;8.93;;;2.67;;
21162;SDS011;10739;52.198;20.908;2024-01-25T01:23:10;16.35;;;3.20;;
21162;SDS011;10739;52.198;20.908;2024-01-25T01:25:37;10.77;;;2.58;;
21162;SDS011;10739;52.198;20.908;2024-01-25T01:28:03;11.07;;;2.70;;
21162;SDS011;10739;52.198;20.908;2024-01-25T01:30:29;15.02;;;3.10;;
21162;SDS011;10739;52.198;20.908;2024-01-25T01:32:56;16.27;;;3.10;;
21162;SDS011;10739;52.198;20.908;2024-01-25T01:35:22;14.45;;;3.38;;
21162;SDS011;10739;52.198;20.908;2024-01-25T01:37:48;20.30;;;4.63;;
21162;SDS011;10739;52.198;20.908;2024-01-25T01:40:15;14.57;;;2.80;;
21162;SDS011;10739;52.198;20.908;2024-01-25T01:42:41;20.50;;;3.40;;
21162;SDS011;10739;52.198;20.908;2024-01-25T01:45:09;11.10;;;3.13;;
21162;SDS011;10739;52.198;20.908;2024-01-25T01:47:38;13.55;;;3.03;;
21162;SDS011;10739;52.198;20.908;2024-01-25T01:50:05;17.50;;;4.00;;
21162;SDS011;10739;52.198;20.908;2024-01-25T01:52:33;24.38;;;4.15;;
21162;SDS011;10739;52.198;20.908;2024-01-25T01:54:59;18.98;;;3.50;;
21162;SDS011;10739;52.198;20.908;2024-01-25T01:57:26;18.27;;;3.67;;
21162;SDS011;10739;52.198;20.908;2024-01-25T01:59:53;12.27;;;2.92;;
21162;SDS011;10739;52.198;20.908;2024-01-25T02:02:19;15.07;;;3.10;;
21162;SDS011;10739;52.198;20.908;2024-01-25T02:04:46;15.02;;;2.72;;
21162;SDS011;10739;52.198;20.908;2024-01-25T02:07:12;21.08;;;3.70;;
21162;SDS011;10739;52.198;20.908;2024-01-25T02:09:39;14.65;;;3.05;;
21162;SDS011;10739;52.198;20.908;2024-01-25T02:12:06;14.73;;;2.78;;
21162;SDS011;10739;52.198;20.908;2024-01-25T02:14:32;18.83;;;3.28;;
21162;SDS011;10739;52.198;20.908;2024-01-25T02:16:58;15.77;;;3.42;;
21162;SDS011;10739;52.198;20.908;2024-01-25T02:19:25;17.58;;;3.10;;
21162;SDS011;10739;52.198;20.908;2024-01-25T02:21:51;14.85;;;3.67;;
21162;SDS011;10739;52.198;20.908;2024-01-25T02:24:22;19.40;;;3.67;;
21162;SDS011;10739;52.198;20.908;2024-01-25T02:26:49;7.72;;;2.65;;
21162;SDS011;10739;52.198;20.908;2024-01-25T02:29:15;18.90;;;4.03;;
21162;SDS011;10739;52.198;20.908;2024-01-25T02:31:42;22.02;;;4.28;;
21162;SDS011;10739;52.198;20.908;2024-01-25T02:34:08;19.77;;;4.18;;
21162;SDS011;10739;52.198;20.908;2024-01-25T02:36:34;14.45;;;2.70;;
21162;SDS011;10739;52.198;20.908;2024-01-25T02:39:00;17.08;;;3.17;;
21162;SDS011;10739;52.198;20.908;2024-01-25T02:41:29;25.35;;;3.80;;
21162;SDS011;10739;52.198;20.908;2024-01-25T02:43:57;20.27;;;3.70;;
21162;SDS011;10739;52.198;20.908;2024-01-25T02:46:25;20.90;;;3.97;;
21162;SDS011;10739;52.198;20.908;2024-01-25T02:48:51;21.65;;;3.58;;
21162;SDS011;10739;52.198;20.908;2024-01-25T02:51:17;17.08;;;2.95;;
21162;SDS011;10739;52.198;20.908;2024-01-25T02:53:43;14.52;;;3.40;;
21162;SDS011;10739;52.198;20.908;2024-01-25T02:56:09;17.40;;;3.55;;
21162;SDS011;10739;52.198;20.908;2024-01-25T02:58:36;17.02;;;3.13;;
21162;SDS011;10739;52.198;20.908;2024-01-25T03:01:02;16.83;;;3.30;;
21162;SDS011;10739;52.198;20.908;2024-01-25T03:03:29;16.73;;;3.13;;
21162;SDS011;10739;52.198;20.908;2024-01-25T03:05:55;12.52;;;3.03;;
21162;SDS011;10739;52.198;20.908;2024-01-25T03:08:22;19.50;;;3.40;;
21162;SDS011;10739;52.198;20.908;2024-01-25T03:10:49;17.30;;;2.85;;
21162;SDS011;10739;52.198;20.908;2024-01-25T03:13:15;16.02;;;2.92;;
21162;SDS011;10739;52.198;20.908;2024-01-25T03:15:42;20.60;;;3.40;;
21162;SDS011;10739;52.198;20.908;2024-01-25T03:18:09;21.95;;;3.75;;
21162;SDS011;10739;52.198;20.908;2024-01-25T03:20:36;18.50;;;3.80;;
21162;SDS011;10739;52.198;20.908;2024-01-25T03:23:02;17.52;;;3.75;;
21162;SDS011;10739;52.198;20.908;2024-01-25T03:25:29;18.88;;;3.83;;
21162;SDS011;10739;52.198;20.908;2024-01-25T03:27:56;23.15;;;4.13;;
21162;SDS011;10739;52.198;20.908;2024-01-25T03:30:22;19.55;;;3.42;;
21162;SDS011;10739;52.198;20.908;2024-01-25T03:32:49;18.42;;;3.70;;
21162;SDS011;10739;52.198;20.908;2024-01-25T03:35:15;21.15;;;3.72;;
21162;SDS011;10739;52.198;20.908;2024-01-25T03:37:41;14.73;;;3.30;;
21162;SDS011;10739;52.198;20.908;2024-01-25T03:40:08;17.05;;;3.10;;
21162;SDS011;10739;52.198;20.908;2024-01-25T03:42:34;13.40;;;3.28;;
21162;SDS011;10739;52.198;20.908;2024-01-25T03:45:01;13.57;;;3.10;;
21162;SDS011;10739;52.198;20.908;2024-01-25T03:47:27;14.60;;;3.50;;
21162;SDS011;10739;52.198;20.908;2024-01-25T03:49:53;15.55;;;3.63;;
21162;SDS011;10739;52.198;20.908;2024-01-25T03:52:20;22.95;;;3.40;;
21162;SDS011;10739;52.198;20.908;2024-01-25T03:54:46;18.73;;;3.22;;
21162;SDS011;10739;52.198;20.908;2024-01-25T03:57:12;16.83;;;3.38;;
21162;SDS011;10739;52.198;20.908;2024-01-25T03:59:38;22.80;;;4.57;;
21162;SDS011;10739;52.198;20.908;2024-01-25T04:02:05;14.48;;;3.38;;
21162;SDS011;10739;52.198;20.908;2024-01-25T04:04:31;21.90;;;4.00;;
21162;SDS011;10739;52.198;20.908;2024-01-25T04:06:57;14.02;;;3.42;;
21162;SDS011;10739;52.198;20.908;2024-01-25T04:09:23;23.25;;;4.00;;
21162;SDS011;10739;52.198;20.908;2024-01-25T04:11:50;26.67;;;4.35;;
21162;SDS011;10739;52.198;20.908;2024-01-25T04:14:16;18.25;;;3.58;;
21162;SDS011;10739;52.198;20.908;2024-01-25T04:16:42;18.60;;;3.75;;
21162;SDS011;10739;52.198;20.908;2024-01-25T04:19:11;20.48;;;3.92;;
21162;SDS011;10739;52.198;20.908;2024-01-25T04:21:38;18.35;;;4.13;;
21162;SDS011;10739;52.198;20.908;2024-01-25T04:24:04;22.05;;;4.03;;
21162;SDS011;10739;52.198;20.908;2024-01-25T04:26:31;16.48;;;3.05;;
21162;SDS011;10739;52.198;20.908;2024-01-25T04:28:57;27.42;;;4.03;;
21162;SDS011;10739;52.198;20.908;2024-01-25T04:31:23;21.65;;;3.78;;
21162;SDS011;10739;52.198;20.908;2024-01-25T04:33:50;17.08;;;3.50;;
21162;SDS011;10739;52.198;20.908;2024-01-25T04:36:16;26.52;;;4.20;;
21162;SDS011;10739;52.198;20.908;2024-01-25T04:38:43;20.08;;;3.65;;
21162;SDS011;10739;52.198;20.908;2024-01-25T04:41:09;18.63;;;4.40;;
21162;SDS011;10739;52.198;20.908;2024-01-25T04:43:35;17.40;;;3.85;;
21162;SDS011;10739;52.198;20.908;2024-01-25T04:46:02;14.80;;;3.70;;
21162;SDS011;10739;52.198;20.908;2024-01-25T04:48:29;17.17;;;3.00;;
21162;SDS011;10739;52.198;20.908;2024-01-25T04:50:57;14.63;;;3.22;;
21162;SDS011;10739;52.198;20.908;2024-01-25T04:53:24;17.90;;;3.42;;
21162;SDS011;10739;52.198;20.908;2024-01-25T04:55:50;22.48;;;3.80;;
21162;SDS011;10739;52.198;20.908;2024-01-25T04:58:19;25.40;;;5.45;;
21162;SDS011;10739;52.198;20.908;2024-01-25T05:00:46;12.02;;;2.80;;
21162;SDS011;10739;52.198;20.908;2024-01-25T05:03:12;13.07;;;2.65;;
21162;SDS011;10739;52.198;20.908;2024-01-25T05:05:38;19.48;;;3.13;;
21162;SDS011;10739;52.198;20.908;2024-01-25T05:08:05;16.08;;;2.80;;
21162;SDS011;10739;52.198;20.908;2024-01-25T05:10:32;18.70;;;3.70;;
21162;SDS011;10739;52.198;20.908;2024-01-25T05:12:58;14.65;;;3.22;;
21162;SDS011;10739;52.198;20.908;2024-01-25T05:15:24;16.70;;;3.08;;
21162;SDS011;10739;52.198;20.908;2024-01-25T05:17:50;18.45;;;2.90;;
21162;SDS011;10739;52.198;20.908;2024-01-25T05:20:17;17.52;;;3.22;;
21162;SDS011;10739;52.198;20.908;2024-01-25T05:22:43;17.38;;;3.67;;
21162;SDS011;10739;52.198;20.908;2024-01-25T05:25:11;11.75;;;2.70;;
21162;SDS011;10739;52.198;20.908;2024-01-25T05:27:38;13.23;;;2.95;;
21162;SDS011;10739;52.198;20.908;2024-01-25T05:30:04;16.63;;;3.65;;
21162;SDS011;10739;52.198;20.908;2024-01-25T05:32:31;16.55;;;3.30;;
21162;SDS011;10739;52.198;20.908;2024-01-25T05:34:58;15.60;;;2.63;;
21162;SDS011;10739;52.198;20.908;2024-01-25T05:37:24;11.65;;;2.72;;
21162;SDS011;10739;52.198;20.908;2024-01-25T05:39:51;12.63;;;2.88;;
21162;SDS011;10739;52.198;20.908;2024-01-25T05:42:17;12.30;;;2.70;;
21162;SDS011;10739;52.198;20.908;2024-01-25T05:44:48;15.27;;;3.50;;
21162;SDS011;10739;52.198;20.908;2024-01-25T05:47:19;16.42;;;3.05;;
21162;SDS011;10739;52.198;20.908;2024-01-25T05:49:45;16.17;;;3.67;;
21162;SDS011;10739;52.198;20.908;2024-01-25T05:52:11;20.45;;;3.35;;
21162;SDS011;10739;52.198;20.908;2024-01-25T05:54:38;14.55;;;3.08;;
21162;SDS011;10739;52.198;20.908;2024-01-25T05:57:04;14.75;;;3.42;;
21162;SDS011;10739;52.198;20.908;2024-01-25T05:59:30;14.38;;;3.83;;
21162;SDS011;10739;52.198;20.908;2024-01-25T06:01:57;11.82;;;2.95;;
21162;SDS011;10739;52.198;20.908;2024-01-25T06:04:23;19.67;;;3.35;;
21162;SDS011;10739;52.198;20.908;2024-01-25T06:06:49;20.15;;;3.83;;
21162;SDS011;10739;52.198;20.908;2024-01-25T06:09:15;14.20;;;3.50;;
21162;SDS011;10739;52.198;20.908;2024-01-25T06:11:42;17.00;;;3.25;;
21162;SDS011;10739;52.198;20.908;2024-01-25T06:14:08;17.55;;;5.22;;
21162;SDS011;10739;52.198;20.908;2024-01-25T06:16:34;8.68;;;2.65;;
21162;SDS011;10739;52.198;20.908;2024-01-25T06:19:01;12.25;;;3.00;;
21162;SDS011;10739;52.198;20.908;2024-01-25T06:21:29;18.95;;;4.05;;
21162;SDS011;10739;52.198;20.908;2024-01-25T06:23:55;18.27;;;3.15;;
21162;SDS011;10739;52.198;20.908;2024-01-25T06:26:21;15.18;;;3.55;;
21162;SDS011;10739;52.198;20.908;2024-01-25T06:28:48;12.77;;;2.83;;
21162;SDS011;10739;52.198;20.908;2024-01-25T06:31:14;12.05;;;3.63;;
21162;SDS011;10739;52.198;20.908;2024-01-25T06:33:40;22.10;;;3.95;;
21162;SDS011;10739;52.198;20.908;2024-01-25T06:36:06;16.35;;;2.92;;
21162;SDS011;10739;52.198;20.908;2024-01-25T06:38:34;14.52;;;3.25;;
21162;SDS011;10739;52.198;20.908;2024-01-25T06:41:01;13.02;;;3.00;;
21162;SDS011;10739;52.198;20.908;2024-01-25T06:43:27;12.80;;;2.70;;
21162;SDS011;10739;52.198;20.908;2024-01-25T06:45:53;19.02;;;3.60;;
21162;SDS011;10739;52.198;20.908;2024-01-25T06:48:19;8.98;;;2.97;;
21162;SDS011;10739;52.198;20.908;2024-01-25T06:50:46;12.20;;;3.15;;
21162;SDS011;10739;52.198;20.908;2024-01-25T06:53:12;15.48;;;3.38;;
21162;SDS011;10739;52.198;20.908;2024-01-25T06:55:38;14.32;;;3.35;;
21162;SDS011;10739;52.198;20.908;2024-01-25T06:58:05;18.02;;;3.22;;
21162;SDS011;10739;52.198;20.908;2024-01-25T07:00:31;9.00;;;2.05;;
21162;SDS011;10739;52.198;20.908;2024-01-25T07:02:57;19.58;;;3.50;;
21162;SDS011;10739;52.198;20.908;2024-01-25T07:05:23;15.13;;;2.90;;
21162;SDS011;10739;52.198;20.908;2024-01-25T07:07:50;16.42;;;3.53;;
21162;SDS011;10739;52.198;20.908;2024-01-25T07:10:16;11.57;;;2.85;;
21162;SDS011;10739;52.198;20.908;2024-01-25T07:12:42;21.15;;;3.08;;
21162;SDS011;10739;52.198;20.908;2024-01-25T07:15:09;13.18;;;2.80;;
21162;SDS011;10739;52.198;20.908;2024-01-25T07:17:35;17.48;;;3.30;;
21162;SDS011;10739;52.198;20.908;2024-01-25T07:20:02;20.55;;;4.32;;
21162;SDS011;10739;52.198;20.908;2024-01-25T07:22:28;18.90;;;2.83;;
21162;SDS011;10739;52.198;20.908;2024-01-25T07:24:54;10.07;;;2.72;;
21162;SDS011;10739;52.198;20.908;2024-01-25T07:27:21;15.95;;;3.28;;
21162;SDS011;10739;52.198;20.908;2024-01-25T07:29:47;17.65;;;4.05;;
21162;SDS011;10739;52.198;20.908;2024-01-25T07:32:13;19.95;;;3.95;;
21162;SDS011;10739;52.198;20.908;2024-01-25T07:34:39;11.00;;;2.83;;
21162;SDS011;10739;52.198;20.908;2024-01-25T07:37:06;19.70;;;4.47;;
21162;SDS011;10739;52.198;20.908;2024-01-25T07:39:32;12.23;;;3.58;;
21162;SDS011;10739;52.198;20.908;2024-01-25T07:41:58;9.52;;;3.15;;
21162;SDS011;10739;52.198;20.908;2024-01-25T07:44:25;19.52;;;2.88;;
21162;SDS011;10739;52.198;20.908;2024-01-25T07:46:51;12.45;;;2.80;;
21162;SDS011;10739;52.198;20.908;2024-01-25T07:49:17;10.95;;;3.25;;
21162;SDS011;10739;52.198;20.908;2024-01-25T07:51:44;14.65;;;3.30;;
21162;SDS011;10739;52.198;20.908;2024-01-25T07:54:10;8.48;;;2.78;;
21162;SDS011;10739;52.198;20.908;2024-01-25T07:56:37;9.48;;;3.05;;
21162;SDS011;10739;52.198;20.908;2024-01-25T07:59:03;17.33;;;3.60;;
21162;SDS011;10739;52.198;20.908;2024-01-25T08:01:30;14.68;;;3.22;;
21162;SDS011;10739;52.198;20.908;2024-01-25T08:03:56;11.70;;;2.58;;
21162;SDS011;10739;52.198;20.908;2024-01-25T08:06:22;13.82;;;3.53;;
21162;SDS011;10739;52.198;20.908;2024-01-25T08:08:48;15.95;;;2.95;;
21162;SDS011;10739;52.198;20.908;2024-01-25T08:11:15;10.30;;;2.95;;
21162;SDS011;10739;52.198;20.908;2024-01-25T08:13:44;13.32;;;3.20;;
21162;SDS011;10739;52.198;20.908;2024-01-25T08:16:11;15.00;;;2.83;;
21162;SDS011;10739;52.198;20.908;2024-01-25T08:18:37;10.32;;;2.85;;
21162;SDS011;10739;52.198;20.908;2024-01-25T08:21:04;11.45;;;2.53;;
21162;SDS011;10739;52.198;20.908;2024-01-25T08:23:30;7.90;;;2.47;;
21162;SDS011;10739;52.198;20.908;2024-01-25T08:25:57;7.68;;;2.30;;
21162;SDS011;10739;52.198;20.908;2024-01-25T08:28:23;5.90;;;2.08;;
21162;SDS011;10739;52.198;20.908;2024-01-25T08:30:50;5.60;;;1.70;;
21162;SDS011;10739;52.198;20.908;2024-01-25T08:33:16;4.43;;;1.98;;
21162;SDS011;10739;52.198;20.908;2024-01-25T08:35:43;12.18;;;2.88;;
21162;SDS011;10739;52.198;20.908;2024-01-25T08:38:09;6.05;;;2.00;;
21162;SDS011;10739;52.198;20.908;2024-01-25T08:40:35;5.72;;;1.98;;
21162;SDS011;10739;52.198;20.908;2024-01-25T08:43:02;4.72;;;1.90;;
21162;SDS011;10739;52.198;20.908;2024-01-25T08:45:30;10.40;;;2.50;;
21162;SDS011;10739;52.198;20.908;2024-01-25T08:47:56;4.93;;;1.75;;
21162;SDS011;10739;52.198;20.908;2024-01-25T08:50:22;6.35;;;2.17;;
21162;SDS011;10739;52.198;20.908;2024-01-25T08:52:49;8.15;;;2.30;;
21162;SDS011;10739;52.198;20.908;2024-01-25T08:55:15;2.55;;;1.67;;
21162;SDS011;10739;52.198;20.908;2024-01-25T08:57:41;8.10;;;2.10;;
21162;SDS011;10739;52.198;20.908;2024-01-25T09:00:08;4.40;;;2.20;;
21162;SDS011;10739;52.198;20.908;2024-01-25T09:02:38;4.22;;;1.88;;
21162;SDS011;10739;52.198;20.908;2024-01-25T09:05:05;4.80;;;2.30;;
21162;SDS011;10739;52.198;20.908;2024-01-25T09:07:32;4.70;;;1.90;;
21162;SDS011;10739;52.198;20.908;2024-01-25T09:09:59;6.20;;;1.92;;
21162;SDS011;10739;52.198;20.908;2024-01-25T09:12:25;9.30;;;2.50;;
21162;SDS011;10739;52.198;20.908;2024-01-25T09:14:52;7.60;;;2.42;;
21162;SDS011;10739;52.198;20.908;2024-01-25T09:17:18;10.63;;;2.35;;
21162;SDS011;10739;52.198;20.908;2024-01-25T09:19:47;6.85;;;2.72;;
21162;SDS011;10739;52.198;20.908;2024-01-25T09:22:18;2.63;;;2.20;;
21162;SDS011;10739;52.198;20.908;2024-01-25T09:24:45;3.17;;;2.38;;
21162;SDS011;10739;52.198;20.908;2024-01-25T09:27:12;3.85;;;2.35;;
21162;SDS011;10739;52.198;20.908;2024-01-25T09:29:39;5.85;;;2.33;;
21162;SDS011;10739;52.198;20.908;2024-01-25T09:32:06;4.32;;;2.78;;
21162;SDS011;10739;52.198;20.908;2024-01-25T09:34:34;9.57;;;2.70;;
21162;SDS011;10739;52.198;20.908;2024-01-25T09:37:02;4.70;;;2.75;;
21162;SDS011;10739;52.198;20.908;2024-01-25T09:39:31;3.15;;;2.40;;
21162;SDS011;10739;52.198;20.908;2024-01-25T09:41:58;4.35;;;2.30;;
21162;SDS011;10739;52.198;20.908;2024-01-25T09:44:24;4.88;;;2.40;;
21162;SDS011;10739;52.198;20.908;2024-01-25T09:46:50;11.82;;;2.65;;
21162;SDS011;10739;52.198;20.908;2024-01-25T09:49:17;4.53;;;2.45;;
21162;SDS011;10739;52.198;20.908;2024-01-25T09:51:44;2.53;;;2.10;;
21162;SDS011;10739;52.198;20.908;2024-01-25T09:54:14;3.88;;;2.35;;
21162;SDS011;10739;52.198;20.908;2024-01-25T09:56:42;4.65;;;2.40;;
21162;SDS011;10739;52.198;20.908;2024-01-25T09:59:09;4.95;;;2.22;;
21162;SDS011;10739;52.198;20.908;2024-01-25T10:01:35;3.30;;;2.65;;
21162;SDS011;10739;52.198;20.908;2024-01-25T10:04:01;5.63;;;2.00;;
21162;SDS011;10739;52.198;20.908;2024-01-25T10:06:32;3.50;;;1.92;;
21162;SDS011;10739;52.198;20.908;2024-01-25T10:08:58;2.33;;;2.08;;
21162;SDS011;10739;52.198;20.908;2024-01-25T10:11:25;5.85;;;2.22;;
21162;SDS011;10739;52.198;20.908;2024-01-25T10:13:53;5.32;;;1.90;;
21162;SDS011;10739;52.198;20.908;2024-01-25T10:16:22;4.57;;;1.83;;
21162;SDS011;10739;52.198;20.908;2024-01-25T10:18:48;3.75;;;2.30;;
21162;SDS011;10739;52.198;20.908;2024-01-25T10:21:15;4.40;;;1.85;;
21162;SDS011;10739;52.198;20.908;2024-01-25T10:23:44;4.43;;;2.08;;
21162;SDS011;10739;52.198;20.908;2024-01-25T10:26:12;2.58;;;2.08;;
21162;SDS011;10739;52.198;20.908;2024-01-25T10:28:39;1.95;;;1.70;;
21162;SDS011;10739;52.198;20.908;2024-01-25T10:31:06;2.60;;;1.55;;
21162;SDS011;10739;52.198;20.908;2024-01-25T10:33:38;2.47;;;1.93;;
21162;SDS011;10739;52.198;20.908;2024-01-25T10:36:06;7.93;;;1.42;;
21162;SDS011;10739;52.198;20.908;2024-01-25T10:38:38;3.10;;;1.50;;
21162;SDS011;10739;52.198;20.908;2024-01-25T10:41:24;6.80;;;1.83;;
21162;SDS011;10739;52.198;20.908;2024-01-25T10:44:01;4.30;;;2.13;;
21162;SDS011;10739;52.198;20.908;2024-01-25T10:46:28;5.18;;;1.58;;
21162;SDS011;10739;52.198;20.908;2024-01-25T10:48:58;3.80;;;1.80;;
21162;SDS011;10739;52.198;20.908;2024-01-25T10:51:26;4.07;;;1.75;;
21162;SDS011;10739;52.198;20.908;2024-01-25T10:53:54;1.73;;;1.15;;
21162;SDS011;10739;52.198;20.908;2024-01-25T10:56:22;4.07;;;1.60;;
21162;SDS011;10739;52.198;20.908;2024-01-25T10:58:49;2.75;;;1.50;;
21162;SDS011;10739;52.198;20.908;2024-01-25T11:01:16;4.53;;;1.90;;
21162;SDS011;10739;52.198;20.908;2024-01-25T11:03:45;2.35;;;1.52;;
21162;SDS011;10739;52.198;20.908;2024-01-25T11:06:12;5.13;;;1.80;;
21162;SDS011;10739;52.198;20.908;2024-01-25T11:08:39;6.07;;;1.55;;
21162;SDS011;10739;52.198;20.908;2024-01-25T11:11:06;4.57;;;1.70;;
21162;SDS011;10739;52.198;20.908;2024-01-25T11:13:42;8.20;;;2.10;;
21162;SDS011;10739;52.198;20.908;2024-01-25T11:18:50;4.07;;;1.60;;
21162;SDS011;10739;52.198;20.908;2024-01-25T11:24:13;2.45;;;1.83;;
21162;SDS011;10739;52.198;20.908;2024-01-25T11:26:47;3.67;;;1.58;;
21162;SDS011;10739;52.198;20.908;2024-01-25T11:31:45;6.07;;;1.70;;
21162;SDS011;10739;52.198;20.908;2024-01-25T11:34:14;2.75;;;1.75;;
21162;SDS011;10739;52.198;20.908;2024-01-25T11:36:42;3.58;;;1.80;;
21162;SDS011;10739;52.198;20.908;2024-01-25T11:39:09;3.05;;;1.38;;
21162;SDS011;10739;52.198;20.908;2024-01-25T11:41:41;3.90;;;1.83;;
21162;SDS011;10739;52.198;20.908;2024-01-25T11:44:12;5.90;;;1.85;;
21162;SDS011;10739;52.198;20.908;2024-01-25T11:46:39;2.38;;;1.48;;
21162;SDS011;10739;52.198;20.908;2024-01-25T11:49:05;6.68;;;1.75;;
21162;SDS011;10739;52.198;20.908;2024-01-25T11:51:34;4.32;;;1.60;;
21162;SDS011;10739;52.198;20.908;2024-01-25T11:54:00;4.10;;;1.73;;
21162;SDS011;10739;52.198;20.908;2024-01-25T11:56:31;2.53;;;1.67;;
21162;SDS011;10739;52.198;20.908;2024-01-25T11:59:04;3.38;;;1.73;;
21162;SDS011;10739;52.198;20.908;2024-01-25T12:01:31;4.88;;;1.55;;
21162;SDS011;10739;52.198;20.908;2024-01-25T12:03:58;3.95;;;2.17;;
21162;SDS011;10739;52.198;20.908;2024-01-25T12:06:24;6.72;;;1.75;;
21162;SDS011;10739;52.198;20.908;2024-01-25T12:08:50;3.45;;;1.83;;
21162;SDS011;10739;52.198;20.908;2024-01-25T12:11:17;7.15;;;1.70;;
21162;SDS011;10739;52.198;20.908;2024-01-25T12:13:44;10.88;;;2.47;;
21162;SDS011;10739;52.198;20.908;2024-01-25T12:16:11;5.95;;;2.42;;
21162;SDS011;10739;52.198;20.908;2024-01-25T12:18:40;5.95;;;2.47;;
21162;SDS011;10739;52.198;20.908;2024-01-25T12:21:08;9.82;;;2.33;;
21162;SDS011;10739;52.198;20.908;2024-01-25T12:23:39;8.80;;;2.55;;
21162;SDS011;10739;52.198;20.908;2024-01-25T12:26:06;5.90;;;2.13;;
21162;SDS011;10739;52.198;20.908;2024-01-25T12:28:36;7.80;;;2.40;;
21162;SDS011;10739;52.198;20.908;2024-01-25T12:31:03;5.72;;;2.92;;
21162;SDS011;10739;52.198;20.908;2024-01-25T12:33:31;6.15;;;2.40;;
21162;SDS011;10739;52.198;20.908;2024-01-25T12:35:59;6.68;;;2.15;;
21162;SDS011;10739;52.198;20.908;2024-01-25T12:38:28;4.40;;;2.50;;
21162;SDS011;10739;52.198;20.908;2024-01-25T12:40:57;6.90;;;2.72;;
21162;SDS011;10739;52.198;20.908;2024-01-25T12:43:23;7.93;;;3.08;;
21162;SDS011;10739;52.198;20.908;2024-01-25T12:45:50;4.63;;;2.42;;
21162;SDS011;10739;52.198;20.908;2024-01-25T12:48:17;5.75;;;2.42;;
21162;SDS011;10739;52.198;20.908;2024-01-25T12:50:43;4.10;;;2.33;;
21162;SDS011;10739;52.198;20.908;2024-01-25T12:53:10;3.70;;;2.05;;
21162;SDS011;10739;52.198;20.908;2024-01-25T12:55:37;2.53;;;1.70;;
21162;SDS011;10739;52.198;20.908;2024-01-25T12:58:04;3.22;;;1.80;;
21162;SDS011;10739;52.198;20.908;2024-01-25T13:00:30;1.77;;;1.58;;
21162;SDS011;10739;52.198;20.908;2024-01-25T13:02:58;1.52;;;1.40;;
21162;SDS011;10739;52.198;20.908;2024-01-25T13:05:27;4.40;;;1.65;;
21162;SDS011;10739;52.198;20.908;2024-01-25T13:07:53;3.38;;;2.15;;
21162;SDS011;10739;52.198;20.908;2024-01-25T13:10:20;2.13;;;1.80;;
21162;SDS011;10739;52.198;20.908;2024-01-25T13:12:47;3.13;;;1.83;;
21162;SDS011;10739;52.198;20.908;2024-01-25T13:15:13;3.88;;;1.98;;
21162;SDS011;10739;52.198;20.908;2024-01-25T13:17:40;7.10;;;1.90;;
21162;SDS011;10739;52.198;20.908;2024-01-25T13:20:06;2.90;;;1.90;;
21162;SDS011;10739;52.198;20.908;2024-01-25T13:22:34;3.15;;;2.08;;
21162;SDS011;10739;52.198;20.908;2024-01-25T13:25:00;2.85;;;1.98;;
21162;SDS011;10739;52.198;20.908;2024-01-25T13:27:28;2.20;;;2.00;;
21162;SDS011;10739;52.198;20.908;2024-01-25T13:29:55;3.65;;;2.38;;
21162;SDS011;10739;52.198;20.908;2024-01-25T13:32:24;3.25;;;2.42;;
21162;SDS011;10739;52.198;20.908;2024-01-25T13:34:50;5.38;;;2.70;;
21162;SDS011;10739;52.198;20.908;2024-01-25T13:37:16;5.85;;;3.30;;
21162;SDS011;10739;52.198;20.908;2024-01-25T13:39:43;12.88;;;2.88;;
21162;SDS011;10739;52.198;20.908;2024-01-25T13:42:09;3.65;;;2.75;;
21162;SDS011;10739;52.198;20.908;2024-01-25T13:44:36;3.42;;;2.28;;
21162;SDS011;10739;52.198;20.908;2024-01-25T13:47:04;2.95;;;2.13;;
21162;SDS011;10739;52.198;20.908;2024-01-25T13:49:30;2.95;;;2.38;;
21162;SDS011;10739;52.198;20.908;2024-01-25T13:51:59;6.18;;;2.60;;
21162;SDS011;10739;52.198;20.908;2024-01-25T13:54:29;2.80;;;2.47;;
21162;SDS011;10739;52.198;20.908;2024-01-25T13:56:56;4.32;;;2.67;;
21162;SDS011;10739;52.198;20.908;2024-01-25T13:59:22;2.67;;;2.05;;
21162;SDS011;10739;52.198;20.908;2024-01-25T14:01:50;2.38;;;2.15;;
21162;SDS011;10739;52.198;20.908;2024-01-25T14:04:17;3.47;;;2.30;;
21162;SDS011;10739;52.198;20.908;2024-01-25T14:06:43;5.10;;;2.40;;
21162;SDS011;10739;52.198;20.908;2024-01-25T14:09:09;4.82;;;2.47;;
21162;SDS011;10739;52.198;20.908;2024-01-25T14:11:36;4.22;;;2.50;;
21162;SDS011;10739;52.198;20.908;2024-01-25T14:14:02;6.00;;;2.55;;
21162;SDS011;10739;52.198;20.908;2024-01-25T14:16:29;3.15;;;2.60;;
21162;SDS011;10739;52.198;20.908;2024-01-25T14:18:55;5.32;;;3.28;;
21162;SDS011;10739;52.198;20.908;2024-01-25T14:21:23;4.78;;;3.08;;
21162;SDS011;10739;52.198;20.908;2024-01-25T14:23:50;5.35;;;3.38;;
21162;SDS011;10739;52.198;20.908;2024-01-25T14:26:16;5.25;;;2.65;;
21162;SDS011;10739;52.198;20.908;2024-01-25T14:28:42;9.15;;;3.25;;
21162;SDS011;10739;52.198;20.908;2024-01-25T14:31:09;5.72;;;2.67;;
21162;SDS011;10739;52.198;20.908;2024-01-25T14:33:35;3.83;;;2.75;;